This is the latest recevied weather packets stored in our database for station/object CE4ERM-13. If no packets are shown the sender has not sent any weather packets the latest 1 day(s).
| Time | Temp. | Humidity | Pressure | Rain* | Wind** | Luminosity | Snow |
|---|---|---|---|---|---|---|---|
| 1778043999 | 20.56° C | 42% | 1019.7 hPa | - | - | - | - |
| 1778043546 | 22.22° C | 43% | 1016.3 hPa | - | - | - | - |
| 1778043398 | 20.56° C | 41% | 1017.9 hPa | - | - | - | - |
| 1778042946 | 22.22° C | 43% | 1016.8 hPa | - | - | - | - |
| 1778042798 | 20.56° C | 41% | 1017.8 hPa | - | - | - | - |
| 1778042346 | 22.22° C | 42% | 1017.3 hPa | - | - | - | - |
| 1778042308 | 22.78° C | 43% | 1016.8 hPa | - | - | - | - |
| 1778042308 | 20.56° C | 42% | 1019.6 hPa | - | - | - | - |
| 1778041099 | 20.56° C | 42% | 1017.3 hPa | - | - | - | - |
| 1778040998 | 20.56° C | 42% | 1017.3 hPa | - | - | - | - |
| 1778040616 | 20.56° C | 41% | 1016.6 hPa | - | - | - | - |
| 1778040398 | 20.56° C | 41% | 1016.6 hPa | - | - | - | - |
| 1778040012 | 20.56° C | 41% | 1017.4 hPa | - | - | - | - |
| 1778040012 | 22.78° C | 42% | 1017.7 hPa | - | - | - | - |
| 1778039407 | 20.56° C | 42% | 1019.3 hPa | - | - | - | - |
| 1778039231 | 20.56° C | 42% | 1019.3 hPa | - | - | - | - |
| 1778039197 | 20.56° C | 42% | 1019.3 hPa | - | - | - | - |
| 1778038744 | 22.78° C | 42% | 1018 hPa | - | - | - | - |
| 1778038682 | 20.56° C | 42% | 1018.3 hPa | - | - | - | - |
| 1778038597 | 20.56° C | 42% | 1018.3 hPa | - | - | - | - |
| 1778037395 | 21.11° C | 41% | 1019.4 hPa | - | - | - | - |
| 1778034013 | 23.33° C | 42% | 1017.6 hPa | - | - | - | - |
| 1778034013 | 21.11° C | 41% | 1017.7 hPa | - | - | - | - |
| 1778033941 | 23.33° C | 42% | 1017.6 hPa | - | - | - | - |
| 1778033792 | 21.11° C | 41% | 1017.7 hPa | - | - | - | - |
* Rain since midnight (hover to see other rain measurements)
** Current wind speed in m/s (hover to see current wind gust speed)